sensor_id;sensor_type;location;lat;lon;timestamp;P1;durP1;ratioP1;P2;durP2;ratioP2
42092;SDS011;28974;50.316;18.960;2022-08-23T00:03:28;24.70;;;13.52;;
42092;SDS011;28974;50.316;18.960;2022-08-23T00:15:28;20.95;;;12.48;;
42092;SDS011;28974;50.316;18.960;2022-08-23T00:27:29;18.10;;;10.90;;
42092;SDS011;28974;50.316;18.960;2022-08-23T00:39:29;12.45;;;9.60;;
42092;SDS011;28974;50.316;18.960;2022-08-23T00:51:31;16.92;;;9.73;;
42092;SDS011;28974;50.316;18.960;2022-08-23T01:03:35;16.40;;;9.07;;
42092;SDS011;28974;50.316;18.960;2022-08-23T01:15:59;17.45;;;10.07;;
42092;SDS011;28974;50.316;18.960;2022-08-23T01:27:57;25.15;;;12.30;;
42092;SDS011;28974;50.316;18.960;2022-08-23T01:39:58;17.88;;;10.52;;
42092;SDS011;28974;50.316;18.960;2022-08-23T01:51:59;21.02;;;11.30;;
42092;SDS011;28974;50.316;18.960;2022-08-23T02:03:59;16.38;;;9.07;;
42092;SDS011;28974;50.316;18.960;2022-08-23T02:16:01;15.65;;;9.13;;
42092;SDS011;28974;50.316;18.960;2022-08-23T02:28:02;21.13;;;12.25;;
42092;SDS011;28974;50.316;18.960;2022-08-23T02:40:03;21.05;;;12.82;;
42092;SDS011;28974;50.316;18.960;2022-08-23T02:52:05;25.67;;;14.55;;
42092;SDS011;28974;50.316;18.960;2022-08-23T03:04:07;21.67;;;12.85;;
42092;SDS011;28974;50.316;18.960;2022-08-23T03:16:08;28.90;;;13.63;;
42092;SDS011;28974;50.316;18.960;2022-08-23T03:28:09;32.63;;;16.13;;
42092;SDS011;28974;50.316;18.960;2022-08-23T03:40:14;30.38;;;17.25;;
42092;SDS011;28974;50.316;18.960;2022-08-23T03:52:14;29.88;;;17.20;;
42092;SDS011;28974;50.316;18.960;2022-08-23T04:04:15;32.88;;;17.00;;
42092;SDS011;28974;50.316;18.960;2022-08-23T04:16:34;29.00;;;18.83;;
42092;SDS011;28974;50.316;18.960;2022-08-23T04:28:37;35.78;;;20.15;;
42092;SDS011;28974;50.316;18.960;2022-08-23T04:40:38;42.00;;;20.42;;
42092;SDS011;28974;50.316;18.960;2022-08-23T04:52:59;36.65;;;20.02;;
42092;SDS011;28974;50.316;18.960;2022-08-23T05:05:03;49.22;;;22.50;;
42092;SDS011;28974;50.316;18.960;2022-08-23T05:17:04;62.53;;;24.10;;
42092;SDS011;28974;50.316;18.960;2022-08-23T05:29:09;56.42;;;22.55;;
42092;SDS011;28974;50.316;18.960;2022-08-23T05:41:17;47.88;;;22.75;;
42092;SDS011;28974;50.316;18.960;2022-08-23T05:53:19;60.67;;;25.85;;
42092;SDS011;28974;50.316;18.960;2022-08-23T06:05:21;57.63;;;27.42;;
42092;SDS011;28974;50.316;18.960;2022-08-23T06:17:23;77.88;;;31.63;;
42092;SDS011;28974;50.316;18.960;2022-08-23T06:29:23;70.15;;;33.05;;
42092;SDS011;28974;50.316;18.960;2022-08-23T06:41:42;81.30;;;38.42;;
42092;SDS011;28974;50.316;18.960;2022-08-23T06:54:04;107.97;;;43.88;;
42092;SDS011;28974;50.316;18.960;2022-08-23T07:06:14;92.90;;;44.88;;
42092;SDS011;28974;50.316;18.960;2022-08-23T07:18:15;99.70;;;46.17;;
42092;SDS011;28974;50.316;18.960;2022-08-23T07:30:15;90.97;;;41.45;;
42092;SDS011;28974;50.316;18.960;2022-08-23T07:42:17;83.93;;;40.22;;
42092;SDS011;28974;50.316;18.960;2022-08-23T07:54:18;94.47;;;44.17;;
42092;SDS011;28974;50.316;18.960;2022-08-23T08:06:38;99.28;;;42.72;;
42092;SDS011;28974;50.316;18.960;2022-08-23T08:18:40;90.88;;;42.95;;
42092;SDS011;28974;50.316;18.960;2022-08-23T08:30:59;91.70;;;44.60;;
42092;SDS011;28974;50.316;18.960;2022-08-23T08:55:09;72.77;;;39.57;;
42092;SDS011;28974;50.316;18.960;2022-08-23T09:19:15;72.32;;;37.03;;
42092;SDS011;28974;50.316;18.960;2022-08-23T09:43:42;57.72;;;36.17;;
42092;SDS011;28974;50.316;18.960;2022-08-23T09:55:46;68.53;;;34.90;;
42092;SDS011;28974;50.316;18.960;2022-08-23T10:07:55;77.45;;;40.38;;
42092;SDS011;28974;50.316;18.960;2022-08-23T10:32:12;79.45;;;38.42;;
42092;SDS011;28974;50.316;18.960;2022-08-23T10:44:38;78.43;;;40.35;;
42092;SDS011;28974;50.316;18.960;2022-08-23T10:56:45;74.85;;;41.45;;
42092;SDS011;28974;50.316;18.960;2022-08-23T11:08:46;69.05;;;37.83;;
42092;SDS011;28974;50.316;18.960;2022-08-23T12:21:26;72.00;;;41.47;;
42092;SDS011;28974;50.316;18.960;2022-08-23T12:45:36;70.65;;;41.35;;
42092;SDS011;28974;50.316;18.960;2022-08-23T12:57:37;63.50;;;37.28;;
42092;SDS011;28974;50.316;18.960;2022-08-23T13:09:40;70.13;;;38.30;;
42092;SDS011;28974;50.316;18.960;2022-08-23T13:21:41;65.95;;;39.78;;
42092;SDS011;28974;50.316;18.960;2022-08-23T13:33:41;73.35;;;36.85;;
42092;SDS011;28974;50.316;18.960;2022-08-23T13:45:53;61.55;;;34.60;;
42092;SDS011;28974;50.316;18.960;2022-08-23T13:57:54;64.40;;;36.75;;
42092;SDS011;28974;50.316;18.960;2022-08-23T14:09:55;71.57;;;38.65;;
42092;SDS011;28974;50.316;18.960;2022-08-23T14:21:56;59.33;;;36.20;;
42092;SDS011;28974;50.316;18.960;2022-08-23T14:33:57;52.38;;;32.10;;
42092;SDS011;28974;50.316;18.960;2022-08-23T14:45:57;45.90;;;29.23;;
42092;SDS011;28974;50.316;18.960;2022-08-23T14:57:59;55.53;;;31.17;;
42092;SDS011;28974;50.316;18.960;2022-08-23T15:10:00;58.88;;;33.92;;
42092;SDS011;28974;50.316;18.960;2022-08-23T15:22:00;49.47;;;30.80;;
42092;SDS011;28974;50.316;18.960;2022-08-23T15:34:00;50.45;;;31.80;;
42092;SDS011;28974;50.316;18.960;2022-08-23T15:46:09;42.65;;;28.02;;
42092;SDS011;28974;50.316;18.960;2022-08-23T15:58:17;54.15;;;33.03;;
42092;SDS011;28974;50.316;18.960;2022-08-23T16:10:18;61.40;;;38.08;;
42092;SDS011;28974;50.316;18.960;2022-08-23T16:22:18;52.50;;;32.30;;
42092;SDS011;28974;50.316;18.960;2022-08-23T16:34:18;48.95;;;30.05;;
42092;SDS011;28974;50.316;18.960;2022-08-23T16:46:19;67.55;;;30.63;;
42092;SDS011;28974;50.316;18.960;2022-08-23T16:58:20;54.90;;;29.27;;
42092;SDS011;28974;50.316;18.960;2022-08-23T17:10:21;50.70;;;30.27;;
42092;SDS011;28974;50.316;18.960;2022-08-23T17:22:22;51.78;;;29.33;;
42092;SDS011;28974;50.316;18.960;2022-08-23T17:34:22;45.10;;;25.13;;
42092;SDS011;28974;50.316;18.960;2022-08-23T17:46:23;54.22;;;27.55;;
42092;SDS011;28974;50.316;18.960;2022-08-23T17:58:23;64.10;;;31.50;;
42092;SDS011;28974;50.316;18.960;2022-08-23T18:10:24;55.30;;;31.55;;
42092;SDS011;28974;50.316;18.960;2022-08-23T18:22:24;59.85;;;33.50;;
42092;SDS011;28974;50.316;18.960;2022-08-23T18:34:25;52.55;;;30.05;;
42092;SDS011;28974;50.316;18.960;2022-08-23T18:46:25;49.92;;;27.02;;
42092;SDS011;28974;50.316;18.960;2022-08-23T18:58:26;49.28;;;27.67;;
42092;SDS011;28974;50.316;18.960;2022-08-23T19:10:27;48.42;;;28.55;;
42092;SDS011;28974;50.316;18.960;2022-08-23T19:22:28;56.13;;;29.70;;
42092;SDS011;28974;50.316;18.960;2022-08-23T19:34:28;66.97;;;35.10;;
42092;SDS011;28974;50.316;18.960;2022-08-23T19:46:29;59.13;;;31.30;;
42092;SDS011;28974;50.316;18.960;2022-08-23T19:58:30;67.45;;;33.92;;
42092;SDS011;28974;50.316;18.960;2022-08-23T20:10:30;71.70;;;39.42;;
42092;SDS011;28974;50.316;18.960;2022-08-23T20:22:30;89.72;;;42.22;;
42092;SDS011;28974;50.316;18.960;2022-08-23T20:34:49;107.85;;;47.40;;
42092;SDS011;28974;50.316;18.960;2022-08-23T20:46:50;92.65;;;47.33;;
42092;SDS011;28974;50.316;18.960;2022-08-23T20:58:51;91.03;;;45.30;;
42092;SDS011;28974;50.316;18.960;2022-08-23T21:10:51;92.35;;;43.97;;
42092;SDS011;28974;50.316;18.960;2022-08-23T21:22:53;115.57;;;52.10;;
42092;SDS011;28974;50.316;18.960;2022-08-23T21:34:53;77.75;;;37.53;;
42092;SDS011;28974;50.316;18.960;2022-08-23T21:46:53;78.68;;;38.05;;
42092;SDS011;28974;50.316;18.960;2022-08-23T21:58:57;81.65;;;40.63;;
42092;SDS011;28974;50.316;18.960;2022-08-23T22:11:02;94.88;;;43.55;;
42092;SDS011;28974;50.316;18.960;2022-08-23T22:23:04;79.95;;;38.47;;
42092;SDS011;28974;50.316;18.960;2022-08-23T22:35:04;102.18;;;44.70;;
42092;SDS011;28974;50.316;18.960;2022-08-23T22:47:05;104.60;;;45.42;;
42092;SDS011;28974;50.316;18.960;2022-08-23T22:59:06;101.82;;;42.20;;
42092;SDS011;28974;50.316;18.960;2022-08-23T23:11:07;92.63;;;41.28;;
42092;SDS011;28974;50.316;18.960;2022-08-23T23:23:09;100.43;;;38.90;;
42092;SDS011;28974;50.316;18.960;2022-08-23T23:35:10;119.70;;;42.70;;
42092;SDS011;28974;50.316;18.960;2022-08-23T23:47:10;110.13;;;38.88;;
42092;SDS011;28974;50.316;18.960;2022-08-23T23:59:11;110.93;;;42.85;;
